createdAt,value
2019-05-20T00:00:10.245Z,11.00
2019-05-20T00:02:39.639Z,6.25
2019-05-20T00:05:09.209Z,7.85
2019-05-20T00:07:38.532Z,8.45
2019-05-20T00:10:08.413Z,8.95
2019-05-20T00:12:37.801Z,6.90
2019-05-20T00:15:07.202Z,7.55
2019-05-20T00:17:36.523Z,6.78
2019-05-20T00:20:07.566Z,6.45
2019-05-20T00:22:36.886Z,7.33
2019-05-20T00:25:07.097Z,7.85
2019-05-20T00:27:36.417Z,9.48
2019-05-20T00:30:06.790Z,6.10
2019-05-20T00:32:41.404Z,9.55
2019-05-20T00:35:07.733Z,7.12
2019-05-20T00:37:37.102Z,6.85
2019-05-20T00:40:08.377Z,7.53
2019-05-20T00:42:38.774Z,6.17
2019-05-20T00:45:08.854Z,7.55
2019-05-20T00:47:38.170Z,7.28
2019-05-20T00:50:07.843Z,6.83
2019-05-20T00:52:37.161Z,8.03
2019-05-20T00:55:09.514Z,12.37
2019-05-20T00:57:38.833Z,6.50
2019-05-20T01:00:08.596Z,8.93
2019-05-20T01:02:38.132Z,7.35
2019-05-20T01:05:07.546Z,9.58
2019-05-20T01:07:36.857Z,6.17
2019-05-20T01:10:07.034Z,9.35
2019-05-20T01:12:36.346Z,7.00
2019-05-20T01:15:06.815Z,9.93
2019-05-20T01:17:36.137Z,6.20
2019-05-20T01:20:06.801Z,5.72
2019-05-20T01:22:36.206Z,7.65
2019-05-20T01:25:07.141Z,8.23
2019-05-20T01:27:36.525Z,8.63
2019-05-20T01:30:09.276Z,12.93
2019-05-20T01:32:38.592Z,9.55
2019-05-20T01:35:10.038Z,10.05
2019-05-20T01:37:39.349Z,6.95
2019-05-20T01:40:09.128Z,7.83
2019-05-20T01:42:38.449Z,11.45
2019-05-20T01:45:08.226Z,7.30
2019-05-20T01:47:37.553Z,7.83
2019-05-20T01:50:08.292Z,10.20
2019-05-20T01:52:37.629Z,13.62
2019-05-20T01:55:08.752Z,7.22
2019-05-20T01:57:38.085Z,12.18
2019-05-20T02:00:09.247Z,8.00
2019-05-20T02:02:38.582Z,10.45
2019-05-20T02:05:08.339Z,8.80
2019-05-20T02:07:37.671Z,6.03
2019-05-20T02:10:08.029Z,8.00
2019-05-20T02:12:37.432Z,7.58
2019-05-20T02:15:09.135Z,8.55
2019-05-20T02:17:38.461Z,7.30
2019-05-20T02:20:08.360Z,6.78
2019-05-20T02:22:37.773Z,10.82
2019-05-20T02:25:07.433Z,7.22
2019-05-20T02:27:36.770Z,12.45
2019-05-20T02:30:08.046Z,8.13
2019-05-20T02:32:37.498Z,8.30
2019-05-20T02:35:08.140Z,5.72
2019-05-20T02:37:37.511Z,11.25
2019-05-20T02:40:08.041Z,6.87
2019-05-20T02:42:37.452Z,10.50
2019-05-20T02:45:10.184Z,7.92
2019-05-20T02:47:39.518Z,7.28
2019-05-20T02:50:08.906Z,7.45
2019-05-20T02:52:38.233Z,11.83
2019-05-20T02:55:07.919Z,7.12
2019-05-20T02:57:37.241Z,9.13
2019-05-20T03:00:07.667Z,6.17
2019-05-20T03:02:37.019Z,7.55
2019-05-20T03:05:07.754Z,7.15
2019-05-20T03:07:37.081Z,7.03
2019-05-20T03:10:07.034Z,6.50
2019-05-20T03:12:36.366Z,8.13
2019-05-20T03:15:06.732Z,9.23
2019-05-20T03:17:37.039Z,7.60
2019-05-20T03:20:06.891Z,9.33
2019-05-20T03:22:36.236Z,8.18
2019-05-20T03:25:07.458Z,6.85
2019-05-20T03:27:36.786Z,8.38
2019-05-20T03:30:07.059Z,10.70
2019-05-20T03:32:36.521Z,8.53
2019-05-20T03:35:07.863Z,7.05
2019-05-20T03:37:37.387Z,10.08
2019-05-20T03:40:07.620Z,10.35
2019-05-20T03:42:36.968Z,6.90
2019-05-20T03:45:07.501Z,9.18
2019-05-20T03:47:36.962Z,6.87
2019-05-20T03:50:09.349Z,11.10
2019-05-20T03:52:38.691Z,5.53
2019-05-20T03:55:08.244Z,6.80
2019-05-20T03:57:37.591Z,7.10
2019-05-20T04:00:08.722Z,6.22
2019-05-20T04:02:38.043Z,8.70
2019-05-20T04:05:07.442Z,8.25
2019-05-20T04:07:36.759Z,13.45
2019-05-20T04:10:06.929Z,9.85
2019-05-20T04:12:37.243Z,9.30
2019-05-20T04:15:07.202Z,6.58
2019-05-20T04:17:36.519Z,8.85
2019-05-20T04:20:07.571Z,7.70
2019-05-20T04:22:37.175Z,7.65
2019-05-20T04:25:08.119Z,7.35
2019-05-20T04:27:37.443Z,6.78
2019-05-20T04:30:07.648Z,9.98
2019-05-20T04:32:37.007Z,6.35
2019-05-20T04:35:21.550Z,8.90
2019-05-20T04:37:37.815Z,6.85
2019-05-20T04:40:07.677Z,8.70
2019-05-20T04:42:36.995Z,8.50
2019-05-20T04:45:07.445Z,7.50
2019-05-20T04:47:37.740Z,10.95
2019-05-20T04:50:08.992Z,5.95
2019-05-20T04:52:38.342Z,9.15
2019-05-20T04:55:08.576Z,6.42
2019-05-20T04:57:37.958Z,6.85
2019-05-20T05:00:08.732Z,10.03
2019-05-20T05:02:38.112Z,7.33
2019-05-20T05:05:08.486Z,8.38
2019-05-20T05:07:37.818Z,6.67
2019-05-20T05:10:09.087Z,7.22
2019-05-20T05:12:38.471Z,6.05
2019-05-20T05:15:09.363Z,5.75
2019-05-20T05:17:38.756Z,7.55
2019-05-20T05:20:17.695Z,11.83
2019-05-20T05:22:40.019Z,7.30
2019-05-20T05:25:09.582Z,6.83
2019-05-20T05:27:38.903Z,7.42
2019-05-20T05:30:08.581Z,10.72
2019-05-20T05:32:44.174Z,7.42
2019-05-20T05:35:15.581Z,7.62
2019-05-20T05:37:45.938Z,8.60
2019-05-20T05:40:15.913Z,10.68
2019-05-20T05:42:45.329Z,10.65
2019-05-20T05:45:15.090Z,14.70
2019-05-20T05:47:44.423Z,14.20
2019-05-20T05:50:13.889Z,13.75
2019-05-20T05:52:43.289Z,14.38
2019-05-20T05:55:12.966Z,18.12
2019-05-20T05:57:42.291Z,17.77
2019-05-20T06:00:12.833Z,19.05
2019-05-20T06:02:42.556Z,18.50
2019-05-20T06:05:12.245Z,18.37
2019-05-20T06:07:41.570Z,17.62
2019-05-20T06:10:10.980Z,18.17
2019-05-20T06:12:40.376Z,18.05
2019-05-20T06:15:10.461Z,20.50
2019-05-20T06:17:39.857Z,19.87
2019-05-20T06:20:09.550Z,18.85
2019-05-20T06:22:38.937Z,20.15
2019-05-20T06:25:09.047Z,18.87
2019-05-20T06:27:38.423Z,20.85
2019-05-20T06:30:10.421Z,19.85
2019-05-20T06:32:39.818Z,17.50
2019-05-20T06:35:10.418Z,18.85
2019-05-20T06:37:50.522Z,20.68
2019-05-20T06:40:20.011Z,19.15
2019-05-20T06:42:49.343Z,23.18
2019-05-20T06:45:19.057Z,24.80
2019-05-20T06:47:48.385Z,23.40
2019-05-20T06:50:17.893Z,20.50
2019-05-20T06:52:47.219Z,20.85
2019-05-20T06:55:16.995Z,18.10
2019-05-20T06:57:46.395Z,21.40
2019-05-20T07:00:21.394Z,20.30
2019-05-20T07:02:52.238Z,20.92
2019-05-20T07:05:21.707Z,21.95
2019-05-20T07:07:51.045Z,20.27
2019-05-20T07:10:20.442Z,19.42
2019-05-20T07:12:49.904Z,22.27
2019-05-20T07:15:19.405Z,23.15
2019-05-20T07:17:48.726Z,22.87
2019-05-20T07:20:18.056Z,27.90
2019-05-20T07:22:55.729Z,32.03
2019-05-20T07:25:18.502Z,24.47
2019-05-20T07:27:47.870Z,27.02
2019-05-20T07:30:17.482Z,30.00
2019-05-20T07:32:47.108Z,31.02
2019-05-20T07:35:29.410Z,34.38
2019-05-20T07:37:47.614Z,33.78
2019-05-20T07:40:20.059Z,31.65
2019-05-20T07:42:50.698Z,33.25
2019-05-20T07:45:20.086Z,34.98
2019-05-20T07:47:49.599Z,37.10
2019-05-20T07:50:19.687Z,35.73
2019-05-20T07:52:49.167Z,38.17
2019-05-20T07:55:18.871Z,34.70
2019-05-20T07:57:51.379Z,36.38
2019-05-20T08:00:20.875Z,38.98
2019-05-20T08:02:50.426Z,36.88
2019-05-20T08:05:19.854Z,36.68
2019-05-20T08:07:52.313Z,34.13
2019-05-20T08:10:20.666Z,37.42
2019-05-20T08:12:50.046Z,38.33
2019-05-20T08:15:19.371Z,38.83
2019-05-20T08:17:48.789Z,36.53
2019-05-20T08:20:19.276Z,45.90
2019-05-20T08:22:48.724Z,42.10
2019-05-20T08:25:18.532Z,31.10
2019-05-20T08:27:47.995Z,29.30
2019-05-20T08:30:20.456Z,31.85
2019-05-20T08:32:49.843Z,32.15
2019-05-20T08:35:19.255Z,28.85
2019-05-20T08:37:48.594Z,29.25
2019-05-20T08:40:19.275Z,31.30
2019-05-20T08:42:48.708Z,30.90
2019-05-20T08:45:18.250Z,33.38
2019-05-20T08:47:47.648Z,31.65
2019-05-20T08:50:17.138Z,32.63
2019-05-20T08:52:46.494Z,32.08
2019-05-20T08:55:16.090Z,33.55
2019-05-20T08:57:45.517Z,32.00
2019-05-20T09:00:24.688Z,30.43
2019-05-20T09:02:54.451Z,29.92
2019-05-20T09:05:23.855Z,29.60
2019-05-20T09:08:02.989Z,26.10
2019-05-20T09:10:24.223Z,30.35
2019-05-20T09:12:53.645Z,30.40
2019-05-20T09:15:23.129Z,29.07
2019-05-20T09:17:52.888Z,28.35
2019-05-20T09:20:22.553Z,31.45
2019-05-20T09:22:52.025Z,26.42
2019-05-20T09:25:29.729Z,27.35
2019-05-20T09:27:59.682Z,27.27
2019-05-20T09:30:29.159Z,27.77
2019-05-20T09:32:58.670Z,24.80
2019-05-20T09:35:28.181Z,27.50
2019-05-20T09:37:57.677Z,26.15
2019-05-20T09:40:38.186Z,25.17
2019-05-20T09:43:07.792Z,26.30
2019-05-20T09:45:37.507Z,25.52
2019-05-20T09:48:07.410Z,25.17
2019-05-20T09:50:36.759Z,25.52
2019-05-20T09:53:07.539Z,24.27
2019-05-20T09:55:37.454Z,23.65
2019-05-20T09:58:07.423Z,24.75
2019-05-20T10:00:36.820Z,24.30
2019-05-20T10:03:07.222Z,24.75
2019-05-20T10:05:37.765Z,23.30
2019-05-20T10:08:08.436Z,25.82
2019-05-20T10:10:37.774Z,22.55
2019-05-20T10:13:08.316Z,25.25
2019-05-20T10:15:38.074Z,20.12
2019-05-20T10:18:07.756Z,23.60
2019-05-20T10:20:37.101Z,19.65
2019-05-20T10:23:06.726Z,20.08
2019-05-20T10:25:36.235Z,19.40
2019-05-20T10:28:05.645Z,13.68
2019-05-20T10:30:35.049Z,16.80
2019-05-20T10:33:09.699Z,17.42
2019-05-20T10:35:35.837Z,17.00
2019-05-20T10:38:06.070Z,14.75
2019-05-20T10:40:35.521Z,15.35
2019-05-20T10:43:04.905Z,18.65
2019-05-20T10:45:34.649Z,16.30
2019-05-20T10:48:04.114Z,15.75
2019-05-20T10:50:33.594Z,18.17
2019-05-20T10:53:02.933Z,17.60
2019-05-20T10:55:32.326Z,20.08
2019-05-20T10:58:01.783Z,19.00
2019-05-20T11:00:32.089Z,21.37
2019-05-20T11:03:01.420Z,16.57
2019-05-20T11:05:30.770Z,16.35
2019-05-20T11:08:00.275Z,19.75
2019-05-20T11:10:29.691Z,21.87
2019-05-20T11:12:59.257Z,20.82
2019-05-20T11:15:28.599Z,19.73
2019-05-20T11:17:57.923Z,20.48
2019-05-20T11:20:27.267Z,20.27
2019-05-20T11:22:58.880Z,19.92
2019-05-20T11:25:27.786Z,19.57
2019-05-20T11:27:57.182Z,20.30
2019-05-20T11:30:26.522Z,20.15
2019-05-20T11:32:55.854Z,19.87
2019-05-20T11:35:25.194Z,19.45
2019-05-20T11:37:54.524Z,23.38
2019-05-20T11:40:23.938Z,19.77
2019-05-20T11:42:53.330Z,20.32
2019-05-20T11:45:22.746Z,20.72
2019-05-20T11:47:52.149Z,17.57
2019-05-20T11:50:21.846Z,20.77
2019-05-20T11:52:51.242Z,19.92
2019-05-20T11:55:20.655Z,19.48
2019-05-20T11:57:50.948Z,19.80
2019-05-20T12:00:20.543Z,18.65
2019-05-20T12:02:50.242Z,20.08
2019-05-20T12:05:20.794Z,19.00
2019-05-20T12:07:50.141Z,17.23
2019-05-20T12:10:19.817Z,18.75
2019-05-20T12:12:49.147Z,21.65
2019-05-20T12:15:19.116Z,18.05
2019-05-20T12:17:48.462Z,16.90
2019-05-20T12:20:18.259Z,17.32
2019-05-20T12:22:47.618Z,15.20
2019-05-20T12:25:17.249Z,17.82
2019-05-20T12:27:46.582Z,15.88
2019-05-20T12:30:16.298Z,16.65
2019-05-20T12:32:45.866Z,16.85
2019-05-20T12:35:15.223Z,18.12
2019-05-20T12:37:45.821Z,16.30
2019-05-20T12:40:15.878Z,14.95
2019-05-20T12:42:45.214Z,20.65
2019-05-20T12:45:14.899Z,20.15
2019-05-20T12:47:44.227Z,21.50
2019-05-20T12:50:14.115Z,17.60
2019-05-20T12:52:43.510Z,23.92
2019-05-20T12:55:13.889Z,23.45
2019-05-20T12:57:43.219Z,23.02
2019-05-20T13:00:15.706Z,23.57
2019-05-20T13:02:45.062Z,26.05
2019-05-20T13:05:14.571Z,26.10
2019-05-20T13:07:44.036Z,28.10
2019-05-20T13:10:29.171Z,32.98
2019-05-20T13:12:44.949Z,28.10
2019-05-20T13:15:14.736Z,28.50
2019-05-20T13:17:45.205Z,24.55
2019-05-20T13:20:16.236Z,28.73
2019-05-20T13:22:45.645Z,25.60
2019-05-20T13:25:16.094Z,24.45
2019-05-20T13:27:45.438Z,30.08
2019-05-20T13:30:15.805Z,25.85
2019-05-20T13:32:45.227Z,26.52
2019-05-20T13:35:14.793Z,32.45
2019-05-20T13:37:44.152Z,28.05
2019-05-20T13:40:14.427Z,23.57
2019-05-20T13:42:43.768Z,24.75
2019-05-20T13:45:14.377Z,26.45
2019-05-20T13:47:43.826Z,28.20
2019-05-20T13:50:13.700Z,25.90
2019-05-20T13:52:43.212Z,29.85
2019-05-20T13:55:12.932Z,30.37
2019-05-20T13:57:42.420Z,27.25
2019-05-20T14:00:12.114Z,30.25
2019-05-20T14:02:41.527Z,36.77
2019-05-20T14:05:11.213Z,28.90
2019-05-20T14:07:40.544Z,34.80
2019-05-20T14:10:11.732Z,33.30
2019-05-20T14:12:41.190Z,33.20
2019-05-20T14:15:10.879Z,31.50
2019-05-20T14:17:40.282Z,36.63
2019-05-20T14:20:10.150Z,34.20
2019-05-20T14:22:39.486Z,35.80
2019-05-20T14:25:09.164Z,41.15
2019-05-20T14:27:38.674Z,37.20
2019-05-20T14:30:09.265Z,37.93
2019-05-20T14:32:38.746Z,38.53
2019-05-20T14:35:08.504Z,44.15
2019-05-20T14:37:38.144Z,41.60
2019-05-20T14:40:08.635Z,40.17
2019-05-20T14:42:38.126Z,46.70
2019-05-20T14:45:08.082Z,42.55
2019-05-20T14:47:37.422Z,46.45
2019-05-20T14:50:10.052Z,45.73
2019-05-20T14:52:39.462Z,46.77
2019-05-20T14:55:09.340Z,42.17
2019-05-20T14:57:38.746Z,50.95
2019-05-20T15:00:09.439Z,44.63
2019-05-20T15:02:38.833Z,45.58
2019-05-20T15:05:08.497Z,46.92
2019-05-20T15:07:37.840Z,48.95
2019-05-20T15:10:10.628Z,44.30
2019-05-20T15:13:11.500Z,49.65
2019-05-20T15:15:40.821Z,52.58
2019-05-20T15:18:10.171Z,49.67
2019-05-20T15:20:39.494Z,47.83
2019-05-20T15:23:08.906Z,50.78
2019-05-20T15:25:38.238Z,52.85
2019-05-20T15:28:07.654Z,54.42
2019-05-20T15:30:36.991Z,52.93
2019-05-20T15:33:06.402Z,56.42
2019-05-20T15:35:35.795Z,53.95
2019-05-20T15:38:05.130Z,49.55
2019-05-20T15:40:34.482Z,51.73
2019-05-20T15:43:03.890Z,56.05
2019-05-20T15:45:33.219Z,48.08
2019-05-20T15:48:02.574Z,54.18
2019-05-20T15:50:31.890Z,55.17
2019-05-20T15:53:01.232Z,52.60
2019-05-20T15:55:30.734Z,55.30
2019-05-20T15:58:00.078Z,53.30
2019-05-20T16:00:29.478Z,59.25
2019-05-20T16:02:58.813Z,56.60
2019-05-20T16:05:28.164Z,51.90
2019-05-20T16:07:57.682Z,51.88
2019-05-20T16:10:27.260Z,52.48
2019-05-20T16:12:56.770Z,52.08
2019-05-20T16:15:26.102Z,49.38
2019-05-20T16:17:55.452Z,50.50
2019-05-20T16:20:24.786Z,51.80
2019-05-20T16:22:54.198Z,49.27
2019-05-20T16:25:23.538Z,46.50
2019-05-20T16:27:52.895Z,53.35
2019-05-20T16:30:22.476Z,51.05
2019-05-20T16:32:51.814Z,51.73
2019-05-20T16:35:21.215Z,53.73
2019-05-20T16:37:50.694Z,47.25
2019-05-20T16:40:20.161Z,53.73
2019-05-20T16:42:49.669Z,51.55
2019-05-20T16:45:19.249Z,49.85
2019-05-20T16:47:48.589Z,51.18
2019-05-20T16:50:18.886Z,50.63
2019-05-20T16:52:48.359Z,45.78
2019-05-20T16:55:17.897Z,53.90
2019-05-20T16:57:47.249Z,48.48
2019-05-20T17:00:30.556Z,52.17
2019-05-20T17:02:49.154Z,48.28
2019-05-20T17:05:19.634Z,49.10
2019-05-20T17:07:48.973Z,45.30
2019-05-20T17:10:19.280Z,48.75
2019-05-20T17:12:48.686Z,51.42
2019-05-20T17:15:18.252Z,51.23
2019-05-20T17:17:47.601Z,51.48
2019-05-20T17:20:17.133Z,49.00
2019-05-20T17:22:46.534Z,52.55
2019-05-20T17:25:16.291Z,55.48
2019-05-20T17:27:45.633Z,51.80
2019-05-20T17:30:15.406Z,51.55
2019-05-20T17:32:44.737Z,52.88
2019-05-20T17:35:14.453Z,53.52
2019-05-20T17:37:44.262Z,50.65
2019-05-20T17:40:14.415Z,53.08
2019-05-20T17:42:43.758Z,51.75
2019-05-20T17:45:14.321Z,50.65
2019-05-20T17:47:43.676Z,50.83
2019-05-20T17:50:13.742Z,52.35
2019-05-20T17:52:43.085Z,50.17
2019-05-20T17:55:12.653Z,50.12
2019-05-20T17:57:41.998Z,47.43
2019-05-20T18:00:19.760Z,49.23
2019-05-20T18:02:49.114Z,46.02
2019-05-20T18:05:18.679Z,56.08
2019-05-20T18:07:48.028Z,51.83
2019-05-20T18:10:19.310Z,53.58
2019-05-20T18:12:48.666Z,48.68
2019-05-20T18:15:19.062Z,49.25
2019-05-20T18:17:48.469Z,50.12
2019-05-20T18:20:18.435Z,47.25
2019-05-20T18:22:48.052Z,42.08
2019-05-20T18:25:17.383Z,47.40
2019-05-20T18:27:46.732Z,43.83
2019-05-20T18:30:16.675Z,41.18
2019-05-20T18:32:46.177Z,46.05
2019-05-20T18:35:15.781Z,43.23
2019-05-20T18:37:45.117Z,45.23
2019-05-20T18:40:15.318Z,41.20
2019-05-20T18:42:44.932Z,41.98
2019-05-20T18:45:15.282Z,41.63
2019-05-20T18:47:44.617Z,43.63
2019-05-20T18:50:14.438Z,47.50
2019-05-20T18:52:43.778Z,45.15
2019-05-20T18:55:13.756Z,41.45
2019-05-20T18:57:43.130Z,46.18
2019-05-20T19:00:13.786Z,58.63
2019-05-20T19:02:43.270Z,48.02
2019-05-20T19:05:12.849Z,46.45
2019-05-20T19:07:42.461Z,48.28
2019-05-20T19:10:12.155Z,50.25
2019-05-20T19:12:41.666Z,43.10
2019-05-20T19:15:12.105Z,47.50
2019-05-20T19:17:41.449Z,43.80
2019-05-20T19:20:11.108Z,47.48
2019-05-20T19:22:40.446Z,46.20
2019-05-20T19:25:09.921Z,50.98
2019-05-20T19:27:39.250Z,49.70
2019-05-20T19:30:08.866Z,48.80
2019-05-20T19:32:38.193Z,50.48
2019-05-20T19:35:08.233Z,52.73
2019-05-20T19:37:37.629Z,51.20
2019-05-20T19:40:09.282Z,71.75
2019-05-20T19:42:40.360Z,58.17
2019-05-20T19:45:10.604Z,50.95
2019-05-20T19:47:39.940Z,56.73
2019-05-20T19:50:10.618Z,53.08
2019-05-20T19:52:39.945Z,54.73
2019-05-20T19:55:09.893Z,59.03
2019-05-20T19:57:39.483Z,56.48
2019-05-20T20:00:09.757Z,56.40
2019-05-20T20:02:39.094Z,69.85
2019-05-20T20:05:08.503Z,63.05
2019-05-20T20:07:37.897Z,52.67
2019-05-20T20:10:07.316Z,58.98
2019-05-20T20:12:36.882Z,57.98
2019-05-20T20:15:06.858Z,62.30
2019-05-20T20:17:36.254Z,55.60
2019-05-20T20:20:05.987Z,61.83
2019-05-20T20:22:35.378Z,58.55
2019-05-20T20:25:06.363Z,61.13
2019-05-20T20:27:36.857Z,55.70
2019-05-20T20:30:08.101Z,55.70
2019-05-20T20:32:38.836Z,57.38
2019-05-20T20:35:09.902Z,61.18
2019-05-20T20:37:39.293Z,55.78
2019-05-20T20:40:08.978Z,53.70
2019-05-20T20:42:38.552Z,56.90
2019-05-20T20:45:08.131Z,56.77
2019-05-20T20:47:41.805Z,57.05
2019-05-20T20:50:09.087Z,56.48
2019-05-20T20:52:38.419Z,52.48
2019-05-20T20:55:07.898Z,53.90
2019-05-20T20:57:37.223Z,57.15
2019-05-20T21:00:08.888Z,56.20
2019-05-20T21:02:52.293Z,55.52
2019-05-20T21:05:09.708Z,62.08
2019-05-20T21:07:39.193Z,60.03
2019-05-20T21:10:08.974Z,61.55
2019-05-20T21:12:38.306Z,58.33
2019-05-20T21:15:07.882Z,61.15
2019-05-20T21:17:37.211Z,57.58
2019-05-20T21:20:07.397Z,59.73
2019-05-20T21:22:36.797Z,59.25
2019-05-20T21:25:06.977Z,59.75
2019-05-20T21:27:36.541Z,61.60
2019-05-20T21:30:07.674Z,61.30
2019-05-20T21:32:37.253Z,54.08
2019-05-20T21:35:06.886Z,58.38
2019-05-20T21:37:37.185Z,63.38
2019-05-20T21:40:06.986Z,64.35
2019-05-20T21:42:36.318Z,62.62
2019-05-20T21:45:09.062Z,57.88
2019-05-20T21:47:38.423Z,65.45
2019-05-20T21:50:08.250Z,56.68
2019-05-20T21:52:37.606Z,65.28
2019-05-20T21:55:07.474Z,59.75
2019-05-20T21:57:36.813Z,61.83
2019-05-20T22:00:07.877Z,68.28
2019-05-20T22:02:38.908Z,62.53
2019-05-20T22:05:08.401Z,62.58
2019-05-20T22:07:37.855Z,61.85
2019-05-20T22:10:07.588Z,64.92
2019-05-20T22:12:37.070Z,63.30
2019-05-20T22:15:07.180Z,60.55
2019-05-20T22:17:36.654Z,61.55
2019-05-20T22:20:06.616Z,66.12
2019-05-20T22:22:37.597Z,62.20
2019-05-20T22:25:07.258Z,67.78
2019-05-20T22:27:36.961Z,60.05
2019-05-20T22:30:08.187Z,61.77
2019-05-20T22:32:37.546Z,70.92
2019-05-20T22:35:07.666Z,62.05
2019-05-20T22:37:37.019Z,64.77
2019-05-20T22:40:08.095Z,65.50
2019-05-20T22:42:37.498Z,67.58
2019-05-20T22:45:07.001Z,64.27
2019-05-20T22:47:36.351Z,64.55
2019-05-20T22:50:06.241Z,66.97
2019-05-20T22:52:35.632Z,67.55
2019-05-20T22:55:05.698Z,65.52
2019-05-20T22:57:35.042Z,67.65
2019-05-20T23:00:05.452Z,67.17
2019-05-20T23:02:36.665Z,64.80
2019-05-20T23:05:06.330Z,63.70
2019-05-20T23:07:35.673Z,65.40
2019-05-20T23:10:08.637Z,66.15
2019-05-20T23:12:38.101Z,63.78
2019-05-20T23:15:08.176Z,66.87
2019-05-20T23:17:37.528Z,68.57
2019-05-20T23:20:07.192Z,70.95
2019-05-20T23:22:37.507Z,68.45
2019-05-20T23:25:07.073Z,70.25
2019-05-20T23:27:36.602Z,71.00
2019-05-20T23:30:08.206Z,68.50
2019-05-20T23:32:37.625Z,78.20
2019-05-20T23:35:07.425Z,67.08
2019-05-20T23:37:36.761Z,70.87
2019-05-20T23:40:07.483Z,70.45
2019-05-20T23:42:36.861Z,68.28
2019-05-20T23:45:07.831Z,71.97
2019-05-20T23:47:37.170Z,67.45
2019-05-20T23:50:06.886Z,71.00
2019-05-20T23:52:37.207Z,70.03
2019-05-20T23:55:07.863Z,71.07
2019-05-20T23:57:37.201Z,72.50
